createdAt,value
2023-05-10T06:56:02.638Z,1284.00
2023-05-10T06:57:04.207Z,1060.00
2023-05-10T06:58:11.186Z,829.00
2023-05-10T06:59:02.848Z,927.00
2023-05-10T07:00:02.808Z,780.00
2023-05-10T07:01:02.928Z,831.00
2023-05-10T07:02:02.893Z,769.00
2023-05-10T07:03:02.925Z,681.00
2023-05-10T07:04:02.838Z,778.00
2023-05-10T07:05:03.567Z,660.00
2023-05-10T07:06:02.812Z,636.00
2023-05-10T07:07:02.830Z,635.00
2023-05-10T07:08:02.900Z,635.00
2023-05-10T07:09:02.876Z,645.00
2023-05-10T07:10:02.924Z,655.00
2023-05-10T07:11:03.093Z,660.00
2023-05-10T07:12:02.963Z,666.00
2023-05-10T07:13:02.986Z,649.00
2023-05-10T07:14:02.973Z,629.00
2023-05-10T07:15:02.993Z,638.00
2023-05-10T07:16:03.054Z,644.00
2023-05-10T07:17:03.074Z,632.00
2023-05-10T07:18:03.140Z,624.00
2023-05-10T07:19:03.117Z,618.00
2023-05-10T07:20:03.092Z,625.00
2023-05-10T07:21:03.166Z,625.00
2023-05-10T07:22:03.212Z,623.00
2023-05-10T07:23:03.239Z,626.00
2023-05-10T07:24:03.254Z,637.00
2023-05-10T07:25:03.251Z,626.00
2023-05-10T07:26:03.297Z,621.00
2023-05-10T07:27:03.433Z,622.00
2023-05-10T07:28:03.356Z,619.00
2023-05-10T07:29:03.571Z,630.00
2023-05-10T07:30:03.381Z,667.00
2023-05-10T07:31:03.452Z,668.00
2023-05-10T07:32:03.537Z,665.00
2023-05-10T07:33:03.351Z,666.00
2023-05-10T07:34:03.364Z,729.00
2023-05-10T07:35:03.431Z,749.00
2023-05-10T07:36:03.553Z,761.00
2023-05-10T07:37:03.563Z,772.00
2023-05-10T07:38:03.637Z,787.00
2023-05-10T07:39:03.760Z,799.00
2023-05-10T07:40:03.905Z,818.00
2023-05-10T07:41:03.789Z,838.00
2023-05-10T07:42:03.813Z,851.00
2023-05-10T07:43:03.859Z,870.00
2023-05-10T07:44:03.897Z,889.00
2023-05-10T07:45:03.914Z,907.00
2023-05-10T07:46:04.014Z,922.00
2023-05-10T07:47:03.954Z,935.00
2023-05-10T07:48:04.055Z,942.00
2023-05-10T07:49:04.008Z,948.00
2023-05-10T07:50:04.422Z,960.00
2023-05-10T07:51:04.021Z,976.00
2023-05-10T07:52:03.945Z,992.00
2023-05-10T07:53:03.965Z,1006.00
2023-05-10T07:54:03.982Z,1025.00
2023-05-10T07:55:04.414Z,1038.00
2023-05-10T07:56:04.040Z,1049.00
2023-05-10T07:57:04.034Z,1055.00
2023-05-10T07:58:04.084Z,1064.00
2023-05-10T07:59:04.135Z,1068.00
2023-05-10T08:00:04.414Z,1080.00
2023-05-10T08:01:04.208Z,1094.00
2023-05-10T08:02:04.285Z,1103.00
2023-05-10T08:03:04.352Z,1106.00
2023-05-10T08:04:04.425Z,1110.00
2023-05-10T08:05:04.438Z,1112.00
2023-05-10T08:06:04.528Z,1117.00
2023-05-10T08:07:04.590Z,1119.00
2023-05-10T08:08:04.666Z,1119.00
2023-05-10T08:09:04.680Z,1124.00
2023-05-10T08:10:04.742Z,1131.00
2023-05-10T08:11:04.789Z,1136.00
2023-05-10T08:12:04.830Z,1138.00
2023-05-10T08:13:04.873Z,1140.00
2023-05-10T08:14:04.918Z,1152.00
2023-05-10T08:15:05.428Z,1162.00
2023-05-10T08:16:05.115Z,1167.00
2023-05-10T08:17:05.095Z,1166.00
2023-05-10T08:18:05.182Z,1184.00
2023-05-10T08:19:05.275Z,1233.00
2023-05-10T08:20:05.435Z,1233.00
2023-05-10T08:21:05.306Z,1232.00
2023-05-10T08:22:05.359Z,855.00
2023-05-10T08:23:05.363Z,806.00
2023-05-10T08:24:05.358Z,685.00
2023-05-10T08:25:05.438Z,661.00
2023-05-10T08:26:05.448Z,666.00
2023-05-10T08:27:05.505Z,755.00
2023-05-10T08:28:05.503Z,836.00
2023-05-10T08:29:05.619Z,867.00
2023-05-10T08:30:05.597Z,885.00
2023-05-10T08:31:05.691Z,892.00
2023-05-10T08:32:05.654Z,990.00
2023-05-10T08:33:05.723Z,1104.00
2023-05-10T08:34:05.708Z,1098.00
2023-05-10T08:35:05.745Z,1087.00
2023-05-10T08:36:05.825Z,1075.00
2023-05-10T08:37:05.771Z,1081.00
2023-05-10T08:38:05.748Z,1097.00
2023-05-10T08:39:07.740Z,1123.00
2023-05-10T08:40:06.926Z,1143.00
2023-05-10T08:41:05.777Z,1151.00
2023-05-10T08:42:05.729Z,1172.00
2023-05-10T08:43:05.874Z,1182.00
2023-05-10T08:44:05.760Z,1188.00
2023-05-10T08:45:05.914Z,1195.00
2023-05-10T08:46:05.772Z,1204.00
2023-05-10T08:47:05.842Z,1205.00
2023-05-10T08:48:05.742Z,1204.00
2023-05-10T08:49:05.735Z,1205.00
2023-05-10T08:50:05.794Z,1216.00
2023-05-10T08:51:05.860Z,1215.00
2023-05-10T08:52:05.842Z,1218.00
2023-05-10T08:53:05.916Z,1221.00
2023-05-10T08:54:05.939Z,1224.00
2023-05-10T08:55:07.838Z,1227.00
2023-05-10T08:56:05.991Z,1209.00
2023-05-10T08:57:06.072Z,1196.00
2023-05-10T08:58:06.119Z,1166.00
2023-05-10T08:59:06.073Z,1102.00
2023-05-10T09:00:06.094Z,1084.00
2023-05-10T09:01:06.172Z,1018.00
2023-05-10T09:02:06.205Z,1021.00
2023-05-10T09:03:06.296Z,1028.00
2023-05-10T09:04:06.449Z,939.00
2023-05-10T09:05:06.455Z,1060.00
2023-05-10T09:06:06.445Z,1028.00
2023-05-10T09:07:06.432Z,1029.00
2023-05-10T09:08:06.516Z,1019.00
2023-05-10T09:09:06.596Z,966.00
2023-05-10T09:10:06.968Z,959.00
2023-05-10T09:11:06.723Z,954.00
2023-05-10T09:12:06.739Z,944.00
2023-05-10T09:13:06.819Z,935.00
2023-05-10T09:14:06.874Z,914.00
2023-05-10T09:15:06.974Z,917.00
2023-05-10T09:16:13.903Z,921.00
2023-05-10T09:17:08.034Z,925.00
2023-05-10T09:18:06.973Z,957.00
2023-05-10T09:19:07.079Z,992.00
2023-05-10T09:20:06.985Z,1004.00
2023-05-10T09:21:06.983Z,1013.00
2023-05-10T09:22:06.926Z,1018.00
2023-05-10T09:23:06.952Z,1023.00
2023-05-10T09:24:06.966Z,1031.00
2023-05-10T09:25:06.928Z,1040.00
2023-05-10T09:26:07.463Z,1041.00
2023-05-10T09:27:06.931Z,1032.00
2023-05-10T09:28:06.969Z,1035.00
2023-05-10T09:29:06.972Z,1030.00
2023-05-10T09:30:07.469Z,1020.00
2023-05-10T09:31:07.460Z,1024.00
2023-05-10T09:32:07.104Z,1008.00
2023-05-10T09:33:07.129Z,1001.00
2023-05-10T09:34:07.110Z,991.00
2023-05-10T09:35:07.127Z,983.00
2023-05-10T09:36:07.490Z,983.00
2023-05-10T09:37:07.202Z,979.00
2023-05-10T09:38:07.256Z,976.00
2023-05-10T09:39:07.249Z,972.00
2023-05-10T09:40:07.276Z,963.00
2023-05-10T09:41:07.333Z,947.00
2023-05-10T09:42:07.375Z,935.00
2023-05-10T09:43:07.393Z,919.00
2023-05-10T09:44:07.438Z,900.00
2023-05-10T09:45:07.489Z,881.00
2023-05-10T09:46:07.983Z,861.00
2023-05-10T09:47:07.576Z,847.00
2023-05-10T09:48:07.818Z,841.00
2023-05-10T09:49:07.650Z,838.00
2023-05-10T09:50:07.671Z,835.00
2023-05-10T09:51:07.735Z,827.00
2023-05-10T09:52:07.773Z,821.00
2023-05-10T09:53:07.826Z,813.00
2023-05-10T09:54:07.855Z,804.00
2023-05-10T09:55:07.921Z,792.00
2023-05-10T09:56:07.954Z,782.00
2023-05-10T09:57:08.004Z,773.00
2023-05-10T09:58:08.091Z,769.00
2023-05-10T09:59:08.081Z,769.00
2023-05-10T10:00:08.159Z,767.00
2023-05-10T10:01:08.269Z,769.00
2023-05-10T10:02:08.270Z,771.00
2023-05-10T10:03:08.381Z,770.00
2023-05-10T10:04:08.410Z,771.00
2023-05-10T10:05:08.509Z,774.00
2023-05-10T10:06:18.765Z,773.00
2023-05-10T10:07:09.503Z,772.00
2023-05-10T10:08:08.526Z,766.00
2023-05-10T10:09:08.521Z,757.00
2023-05-10T10:10:08.473Z,749.00
2023-05-10T10:11:08.472Z,746.00
2023-05-10T10:12:08.438Z,739.00
2023-05-10T10:13:08.418Z,735.00
2023-05-10T10:14:08.409Z,727.00
2023-05-10T10:15:08.484Z,726.00
2023-05-10T10:16:09.482Z,723.00
2023-05-10T10:17:09.110Z,721.00
2023-05-10T10:18:08.834Z,713.00
2023-05-10T10:19:08.726Z,706.00
2023-05-10T10:20:11.151Z,699.00
2023-05-10T10:21:09.033Z,536.00
2023-05-10T10:22:08.780Z,521.00
2023-05-10T10:23:08.740Z,492.00
2023-05-10T10:24:08.772Z,465.00
2023-05-10T10:25:08.742Z,458.00
2023-05-10T10:26:09.471Z,451.00
2023-05-10T10:27:08.810Z,457.00
2023-05-10T10:28:08.720Z,519.00
2023-05-10T10:29:08.856Z,526.00
2023-05-10T10:30:08.745Z,544.00
2023-05-10T10:31:08.768Z,559.00
2023-05-10T10:32:08.668Z,574.00
2023-05-10T10:33:16.872Z,626.00
2023-05-10T10:34:09.737Z,637.00
2023-05-10T10:35:08.661Z,647.00
2023-05-10T10:36:09.017Z,664.00
2023-05-10T10:37:08.723Z,717.00
2023-05-10T10:38:08.675Z,738.00
2023-05-10T10:39:08.648Z,704.00
2023-05-10T10:40:08.668Z,639.00
2023-05-10T10:41:08.633Z,656.00
2023-05-10T10:42:08.598Z,651.00
2023-05-10T10:43:08.614Z,605.00
2023-05-10T10:44:08.608Z,591.00
2023-05-10T10:45:08.627Z,588.00
2023-05-10T10:46:08.576Z,636.00
2023-05-10T10:47:08.626Z,609.00
2023-05-10T10:48:08.645Z,596.00
2023-05-10T10:49:08.660Z,588.00
2023-05-10T10:50:08.703Z,602.00
2023-05-10T10:51:10.128Z,613.00
2023-05-10T10:52:08.697Z,600.00
2023-05-10T10:53:08.672Z,578.00
2023-05-10T10:54:08.652Z,567.00
2023-05-10T10:55:08.649Z,560.00
2023-05-10T10:56:08.656Z,550.00
2023-05-10T10:57:08.635Z,561.00
2023-05-10T10:58:08.614Z,567.00
2023-05-10T10:59:08.613Z,552.00
2023-05-10T11:00:08.625Z,550.00
2023-05-10T11:01:08.657Z,565.00
2023-05-10T11:02:08.615Z,555.00
2023-05-10T11:03:08.632Z,559.00
2023-05-10T11:04:08.656Z,595.00
2023-05-10T11:05:08.572Z,589.00
2023-05-10T11:06:08.602Z,579.00
2023-05-10T11:07:08.548Z,581.00
2023-05-10T11:08:08.554Z,588.00
2023-05-10T11:09:08.554Z,540.00
2023-05-10T11:10:08.605Z,529.00
2023-05-10T11:11:08.714Z,637.00
2023-05-10T11:12:08.544Z,624.00
2023-05-10T11:13:08.533Z,609.00
2023-05-10T11:14:08.539Z,611.00
2023-05-10T11:15:08.495Z,641.00
2023-05-10T11:16:09.032Z,595.00
2023-05-10T11:17:08.627Z,565.00
2023-05-10T11:18:08.592Z,563.00
2023-05-10T11:19:08.603Z,558.00
2023-05-10T11:20:08.482Z,546.00
2023-05-10T11:21:08.457Z,532.00
2023-05-10T11:22:08.575Z,523.00
2023-05-10T11:23:08.438Z,518.00
2023-05-10T11:24:08.442Z,514.00
2023-05-10T11:25:08.409Z,507.00
2023-05-10T11:26:08.417Z,502.00
2023-05-10T11:27:08.443Z,496.00
2023-05-10T11:28:08.415Z,490.00
2023-05-10T11:29:08.389Z,485.00
2023-05-10T11:30:08.379Z,480.00
2023-05-10T11:31:08.406Z,475.00
2023-05-10T11:32:08.354Z,474.00
2023-05-10T11:33:08.428Z,471.00
2023-05-10T11:34:08.430Z,468.00
2023-05-10T11:35:08.360Z,464.00
2023-05-10T11:36:08.349Z,461.00
2023-05-10T11:37:08.328Z,459.00
2023-05-10T11:38:08.318Z,461.00
2023-05-10T11:39:08.359Z,461.00
2023-05-10T11:40:08.312Z,461.00
2023-05-10T11:41:08.404Z,460.00
2023-05-10T11:42:08.306Z,459.00
2023-05-10T11:43:08.309Z,459.00
2023-05-10T11:44:08.292Z,457.00
2023-05-10T11:45:08.275Z,454.00
2023-05-10T11:46:08.314Z,450.00
2023-05-10T11:47:08.327Z,448.00
2023-05-10T11:48:08.307Z,449.00
2023-05-10T11:49:08.250Z,446.00
2023-05-10T11:50:08.248Z,447.00
2023-05-10T11:51:08.499Z,448.00
2023-05-10T11:52:08.246Z,446.00
2023-05-10T11:53:08.265Z,446.00
2023-05-10T11:54:08.231Z,447.00
2023-05-10T11:55:08.234Z,448.00
2023-05-10T11:56:08.192Z,447.00
2023-05-10T11:57:08.195Z,447.00
2023-05-10T11:58:08.221Z,445.00
2023-05-10T11:59:08.173Z,446.00
2023-05-10T12:00:08.184Z,446.00
2023-05-10T12:01:08.275Z,445.00
2023-05-10T12:02:08.212Z,443.00
2023-05-10T12:03:08.227Z,442.00
2023-05-10T12:04:08.384Z,443.00
2023-05-10T12:05:08.242Z,443.00
2023-05-10T12:06:08.458Z,442.00
2023-05-10T12:07:08.116Z,440.00
2023-05-10T12:08:08.121Z,438.00
2023-05-10T12:09:08.165Z,439.00
2023-05-10T12:10:08.130Z,439.00
2023-05-10T12:11:08.462Z,444.00
2023-05-10T12:12:08.944Z,452.00
2023-05-10T12:13:08.068Z,455.00
2023-05-10T12:14:08.967Z,461.00
2023-05-10T12:15:08.067Z,463.00
2023-05-10T12:16:08.512Z,464.00
2023-05-10T12:17:08.027Z,465.00
2023-05-10T12:18:08.062Z,465.00
2023-05-10T12:19:08.131Z,463.00
2023-05-10T12:20:08.034Z,464.00
2023-05-10T12:21:08.077Z,465.00
2023-05-10T12:22:08.151Z,468.00
2023-05-10T12:23:08.213Z,471.00
2023-05-10T12:24:08.290Z,470.00
2023-05-10T12:25:08.317Z,473.00
2023-05-10T12:26:08.382Z,473.00
2023-05-10T12:27:08.424Z,471.00
2023-05-10T12:28:08.499Z,471.00
2023-05-10T12:29:08.560Z,468.00
2023-05-10T12:30:08.610Z,467.00
2023-05-10T12:31:08.996Z,467.00
2023-05-10T12:32:08.750Z,467.00
2023-05-10T12:33:08.814Z,469.00
2023-05-10T12:34:08.766Z,469.00
2023-05-10T12:35:08.806Z,468.00
2023-05-10T12:36:08.859Z,469.00
2023-05-10T12:37:08.940Z,470.00
2023-05-10T12:38:08.961Z,470.00
2023-05-10T12:39:08.996Z,470.00
2023-05-10T12:40:09.002Z,469.00
2023-05-10T12:41:09.102Z,469.00
2023-05-10T12:42:09.081Z,471.00
2023-05-10T12:43:09.107Z,470.00
2023-05-10T12:44:09.204Z,471.00
2023-05-10T12:45:09.257Z,472.00
2023-05-10T12:46:09.406Z,472.00
2023-05-10T12:47:09.292Z,471.00
2023-05-10T12:48:09.394Z,468.00
2023-05-10T12:49:09.920Z,465.00
2023-05-10T12:50:09.393Z,463.00
2023-05-10T12:51:09.428Z,463.00
2023-05-10T12:52:09.439Z,462.00
2023-05-10T12:53:09.500Z,462.00
2023-05-10T12:54:09.517Z,462.00
2023-05-10T12:55:09.582Z,460.00
2023-05-10T12:56:09.601Z,461.00
2023-05-10T12:57:09.678Z,461.00
2023-05-10T12:58:09.915Z,462.00
2023-05-10T12:59:09.720Z,463.00
2023-05-10T13:00:09.709Z,462.00
2023-05-10T13:01:10.070Z,463.00
2023-05-10T13:02:09.779Z,464.00
2023-05-10T13:03:09.991Z,465.00
2023-05-10T13:04:09.867Z,466.00
2023-05-10T13:05:09.980Z,466.00
2023-05-10T13:06:09.893Z,466.00
2023-05-10T13:07:09.979Z,466.00
2023-05-10T13:08:09.970Z,466.00
2023-05-10T13:09:10.032Z,466.00
2023-05-10T13:10:10.066Z,467.00
2023-05-10T13:11:10.083Z,464.00
2023-05-10T13:12:10.342Z,467.00
2023-05-10T13:13:10.107Z,466.00
2023-05-10T13:14:10.145Z,466.00
2023-05-10T13:15:10.174Z,464.00
2023-05-10T13:16:10.189Z,465.00
2023-05-10T13:17:10.614Z,464.00
2023-05-10T13:18:10.312Z,460.00
2023-05-10T13:19:10.474Z,461.00
2023-05-10T13:20:10.457Z,458.00
2023-05-10T13:21:10.399Z,460.00
2023-05-10T13:22:10.405Z,462.00
2023-05-10T13:23:10.421Z,464.00
2023-05-10T13:24:10.444Z,464.00
2023-05-10T13:25:10.521Z,463.00
2023-05-10T13:26:10.545Z,464.00
2023-05-10T13:27:10.568Z,461.00
2023-05-10T13:28:10.594Z,460.00
2023-05-10T13:29:10.688Z,461.00
2023-05-10T13:30:10.728Z,459.00
2023-05-10T13:31:10.748Z,460.00
2023-05-10T13:32:10.786Z,462.00
2023-05-10T13:33:10.787Z,464.00
2023-05-10T13:34:10.813Z,463.00
2023-05-10T13:35:10.866Z,464.00
2023-05-10T13:36:10.868Z,464.00
2023-05-10T13:37:10.911Z,466.00
2023-05-10T13:38:10.981Z,467.00
2023-05-10T13:39:10.984Z,469.00
2023-05-10T13:40:11.010Z,468.00
2023-05-10T13:41:11.049Z,464.00
2023-05-10T13:42:11.073Z,463.00
2023-05-10T13:43:11.125Z,461.00
2023-05-10T13:44:11.129Z,461.00
2023-05-10T13:45:11.142Z,461.00
2023-05-10T13:46:11.221Z,463.00
2023-05-10T13:47:11.201Z,462.00
2023-05-10T13:48:11.265Z,461.00
2023-05-10T13:49:11.274Z,460.00
2023-05-10T13:50:11.523Z,460.00
2023-05-10T13:51:11.358Z,461.00
2023-05-10T13:52:11.365Z,461.00
2023-05-10T13:53:11.387Z,461.00
2023-05-10T13:54:13.420Z,461.00
2023-05-10T13:55:11.503Z,461.00
2023-05-10T13:56:11.507Z,460.00
2023-05-10T13:57:11.542Z,463.00
2023-05-10T13:58:11.672Z,462.00
2023-05-10T13:59:11.640Z,464.00
2023-05-10T14:00:12.012Z,463.00
2023-05-10T14:01:11.665Z,463.00
2023-05-10T14:02:12.096Z,465.00
2023-05-10T14:03:11.933Z,467.00
2023-05-10T14:04:12.515Z,467.00
2023-05-10T14:05:12.411Z,468.00
2023-05-10T14:06:11.849Z,467.00
2023-05-10T14:07:11.975Z,469.00
2023-05-10T14:08:11.928Z,468.00
2023-05-10T14:09:11.976Z,466.00
2023-05-10T14:10:11.992Z,468.00
2023-05-10T14:11:12.031Z,467.00
2023-05-10T14:12:12.079Z,467.00
2023-05-10T14:13:12.098Z,467.00
2023-05-10T14:14:12.120Z,468.00
2023-05-10T14:15:12.182Z,468.00
2023-05-10T14:16:12.225Z,465.00
2023-05-10T14:17:12.648Z,463.00
2023-05-10T14:18:12.295Z,461.00
2023-05-10T14:19:12.298Z,461.00
2023-05-10T14:20:12.343Z,461.00
2023-05-10T14:21:12.379Z,463.00
2023-05-10T14:22:12.398Z,465.00
2023-05-10T14:23:12.523Z,463.00
2023-05-10T14:24:12.501Z,463.00
2023-05-10T14:25:12.566Z,462.00
2023-05-10T14:26:12.542Z,461.00
2023-05-10T14:27:12.603Z,460.00
2023-05-10T14:28:12.655Z,462.00
2023-05-10T14:29:12.841Z,463.00
2023-05-10T14:30:12.716Z,463.00
2023-05-10T14:31:12.754Z,462.00
2023-05-10T14:32:12.880Z,460.00
2023-05-10T14:33:12.856Z,460.00
2023-05-10T14:34:12.887Z,461.00
2023-05-10T14:35:13.649Z,465.00
2023-05-10T14:36:13.003Z,466.00
2023-05-10T14:37:13.007Z,466.00
2023-05-10T14:38:13.128Z,467.00
2023-05-10T14:39:13.111Z,466.00
2023-05-10T14:40:13.140Z,463.00
2023-05-10T14:41:13.187Z,462.00
2023-05-10T14:42:13.265Z,464.00
2023-05-10T14:43:13.307Z,465.00
2023-05-10T14:44:13.343Z,466.00
2023-05-10T14:45:13.385Z,467.00
2023-05-10T14:46:13.467Z,468.00
2023-05-10T14:47:13.486Z,468.00
2023-05-10T14:48:13.532Z,466.00
2023-05-10T14:49:13.591Z,468.00
2023-05-10T14:50:21.500Z,468.00
2023-05-10T14:51:14.624Z,465.00
2023-05-10T14:52:13.720Z,464.00
2023-05-10T14:53:13.604Z,463.00
2023-05-10T14:54:13.599Z,463.00
2023-05-10T14:55:13.599Z,461.00
2023-05-10T14:56:13.609Z,458.00
2023-05-10T14:57:13.593Z,456.00
2023-05-10T14:58:13.561Z,457.00
2023-05-10T14:59:13.594Z,458.00
2023-05-10T15:00:13.564Z,459.00
2023-05-10T15:01:13.632Z,460.00
2023-05-10T15:02:13.703Z,458.00
2023-05-10T15:03:13.754Z,457.00
2023-05-10T15:04:13.756Z,457.00
2023-05-10T15:05:13.872Z,459.00
2023-05-10T15:06:13.818Z,461.00
2023-05-10T15:07:13.882Z,462.00
2023-05-10T15:08:13.954Z,462.00
2023-05-10T15:09:14.023Z,460.00
2023-05-10T15:10:14.045Z,459.00
2023-05-10T15:11:14.133Z,456.00
2023-05-10T15:12:14.163Z,454.00
2023-05-10T15:13:14.216Z,452.00
2023-05-10T15:14:14.286Z,454.00
2023-05-10T15:15:14.423Z,450.00
2023-05-10T15:16:14.430Z,450.00
2023-05-10T15:17:14.472Z,451.00
2023-05-10T15:18:14.551Z,453.00
2023-05-10T15:19:14.564Z,457.00
2023-05-10T15:20:14.654Z,456.00
2023-05-10T15:21:14.782Z,458.00
2023-05-10T15:22:14.797Z,459.00
2023-05-10T15:23:14.878Z,459.00
2023-05-10T15:24:14.939Z,456.00
2023-05-10T15:25:15.262Z,459.00
2023-05-10T15:26:15.017Z,459.00
2023-05-10T15:27:15.096Z,455.00
2023-05-10T15:28:15.127Z,455.00
2023-05-10T15:29:15.293Z,456.00
2023-05-10T15:30:15.290Z,455.00
2023-05-10T15:31:15.355Z,455.00
2023-05-10T15:32:15.445Z,455.00
2023-05-10T15:33:15.433Z,456.00
2023-05-10T15:34:15.490Z,456.00
2023-05-10T15:35:15.678Z,457.00
2023-05-10T15:36:15.624Z,456.00
2023-05-10T15:37:15.682Z,455.00
2023-05-10T15:38:15.714Z,453.00
2023-05-10T15:39:15.823Z,451.00
2023-05-10T15:40:15.829Z,450.00
2023-05-10T15:41:15.898Z,452.00
2023-05-10T15:42:15.968Z,451.00
2023-05-10T15:43:16.030Z,450.00
2023-05-10T15:44:16.073Z,451.00
2023-05-10T15:45:16.500Z,448.00
2023-05-10T15:46:16.310Z,448.00
2023-05-10T15:47:16.281Z,449.00
2023-05-10T15:48:16.338Z,448.00
2023-05-10T15:49:16.410Z,449.00
2023-05-10T15:50:16.502Z,449.00
2023-05-10T15:51:16.557Z,448.00
2023-05-10T15:52:16.622Z,449.00
2023-05-10T15:53:16.637Z,448.00
2023-05-10T15:54:16.682Z,446.00
2023-05-10T15:55:16.987Z,446.00
2023-05-10T15:56:16.818Z,446.00
2023-05-10T15:57:16.873Z,446.00
2023-05-10T15:58:16.909Z,446.00
2023-05-10T15:59:16.974Z,448.00
2023-05-10T16:00:17.026Z,448.00
2023-05-10T16:01:17.082Z,449.00
2023-05-10T16:02:17.193Z,449.00
2023-05-10T16:03:17.145Z,451.00
2023-05-10T16:04:17.214Z,452.00
2023-05-10T16:05:17.401Z,453.00
2023-05-10T16:06:17.303Z,453.00
2023-05-10T16:07:17.376Z,453.00
2023-05-10T16:08:17.418Z,454.00
2023-05-10T16:09:17.438Z,454.00
2023-05-10T16:10:17.494Z,453.00
2023-05-10T16:11:17.564Z,454.00
2023-05-10T16:12:18.120Z,456.00
2023-05-10T16:13:17.680Z,458.00
2023-05-10T16:14:17.751Z,458.00
2023-05-10T16:15:17.970Z,458.00
2023-05-10T16:16:17.881Z,457.00
2023-05-10T16:17:17.953Z,457.00
2023-05-10T16:18:18.134Z,458.00
2023-05-10T16:19:18.112Z,457.00
2023-05-10T16:20:18.080Z,456.00
2023-05-10T16:21:18.093Z,456.00
2023-05-10T16:22:18.148Z,457.00
2023-05-10T16:23:18.197Z,455.00
2023-05-10T16:24:18.261Z,453.00
2023-05-10T16:25:18.525Z,453.00
2023-05-10T16:26:18.344Z,452.00
2023-05-10T16:27:18.361Z,451.00
2023-05-10T16:28:18.358Z,454.00
2023-05-10T16:29:18.374Z,454.00
2023-05-10T16:30:18.422Z,453.00
2023-05-10T16:31:18.450Z,454.00
2023-05-10T16:32:18.441Z,451.00
2023-05-10T16:33:18.503Z,451.00
2023-05-10T16:34:18.588Z,452.00
2023-05-10T16:35:18.800Z,452.00
2023-05-10T16:36:18.619Z,450.00
2023-05-10T16:37:18.645Z,449.00
2023-05-10T16:38:18.722Z,449.00
2023-05-10T16:39:18.720Z,449.00
2023-05-10T16:40:18.730Z,449.00
2023-05-10T16:41:18.728Z,448.00
2023-05-10T16:42:18.746Z,445.00
2023-05-10T16:43:18.696Z,444.00
2023-05-10T16:44:20.578Z,443.00
2023-05-10T16:45:18.911Z,441.00
2023-05-10T16:46:18.828Z,445.00
2023-05-10T16:47:18.905Z,447.00
2023-05-10T16:48:19.041Z,445.00
2023-05-10T16:49:18.989Z,445.00
2023-05-10T16:50:19.053Z,445.00
2023-05-10T16:51:19.066Z,443.00
2023-05-10T16:52:19.040Z,443.00
2023-05-10T16:53:19.014Z,443.00
2023-05-10T16:54:19.023Z,445.00
2023-05-10T16:55:19.408Z,446.00
2023-05-10T16:56:19.219Z,445.00
2023-05-10T16:57:19.287Z,446.00
2023-05-10T16:58:19.303Z,446.00
2023-05-10T16:59:19.271Z,444.00
2023-05-10T17:00:19.286Z,446.00
2023-05-10T17:01:19.295Z,446.00
2023-05-10T17:02:19.288Z,448.00
2023-05-10T17:03:19.532Z,448.00
2023-05-10T17:04:19.457Z,450.00
2023-05-10T17:05:19.669Z,448.00
2023-05-10T17:06:19.651Z,445.00
2023-05-10T17:07:19.775Z,447.00
2023-05-10T17:08:19.773Z,447.00
2023-05-10T17:09:19.748Z,446.00
2023-05-10T17:10:19.733Z,445.00
2023-05-10T17:11:19.757Z,446.00
2023-05-10T17:12:19.774Z,446.00
2023-05-10T17:13:19.744Z,446.00
2023-05-10T17:14:19.742Z,444.00
2023-05-10T17:15:20.007Z,445.00
2023-05-10T17:16:19.952Z,445.00
2023-05-10T17:17:19.895Z,445.00
2023-05-10T17:18:19.913Z,445.00
2023-05-10T17:19:19.913Z,444.00
2023-05-10T17:20:19.919Z,441.00
2023-05-10T17:21:19.897Z,441.00
2023-05-10T17:22:19.923Z,440.00
2023-05-10T17:23:19.978Z,439.00
2023-05-10T17:24:19.977Z,438.00
2023-05-10T17:25:20.672Z,438.00
2023-05-10T17:26:19.975Z,441.00
2023-05-10T17:27:19.984Z,443.00
2023-05-10T17:28:20.017Z,443.00
2023-05-10T17:29:20.032Z,443.00
2023-05-10T17:30:20.014Z,444.00
2023-05-10T17:31:20.111Z,445.00
2023-05-10T17:32:20.167Z,446.00
2023-05-10T17:33:20.362Z,448.00
2023-05-10T17:34:20.369Z,445.00
2023-05-10T17:35:20.490Z,446.00
2023-05-10T17:36:20.574Z,446.00
2023-05-10T17:37:20.662Z,445.00
2023-05-10T17:38:20.624Z,445.00
2023-05-10T17:39:20.619Z,444.00
2023-05-10T17:40:20.606Z,444.00
2023-05-10T17:41:20.642Z,441.00
2023-05-10T17:42:20.653Z,441.00
2023-05-10T17:43:20.674Z,440.00
2023-05-10T17:44:20.686Z,442.00
2023-05-10T17:45:20.689Z,442.00
2023-05-10T17:46:20.893Z,443.00
2023-05-10T17:47:20.743Z,445.00
2023-05-10T17:48:20.741Z,445.00
2023-05-10T17:49:20.761Z,445.00
2023-05-10T17:50:20.794Z,443.00
2023-05-10T17:51:20.787Z,443.00
2023-05-10T17:52:20.879Z,443.00
2023-05-10T17:53:20.902Z,444.00
2023-05-10T17:54:20.903Z,446.00
2023-05-10T17:55:20.933Z,445.00
2023-05-10T17:56:20.928Z,445.00
2023-05-10T17:57:20.932Z,445.00
2023-05-10T17:58:21.059Z,446.00
2023-05-10T17:59:21.053Z,444.00
2023-05-10T18:00:21.073Z,442.00
2023-05-10T18:01:21.113Z,442.00
2023-05-10T18:02:21.172Z,440.00
2023-05-10T18:03:21.110Z,437.00
2023-05-10T18:04:21.207Z,437.00
2023-05-10T18:05:21.488Z,438.00
2023-05-10T18:06:21.204Z,439.00
2023-05-10T18:07:21.220Z,439.00
2023-05-10T18:08:21.229Z,440.00
2023-05-10T18:09:21.245Z,440.00
2023-05-10T18:10:21.250Z,441.00
2023-05-10T18:11:21.338Z,439.00
2023-05-10T18:12:21.321Z,436.00
2023-05-10T18:13:21.350Z,437.00
2023-05-10T18:14:35.963Z,437.00
2023-05-10T18:15:22.368Z,438.00
2023-05-10T18:16:21.387Z,439.00
2023-05-10T18:17:21.332Z,440.00
2023-05-10T18:18:21.343Z,440.00
2023-05-10T18:19:21.313Z,441.00
2023-05-10T18:20:21.302Z,441.00
2023-05-10T18:21:21.321Z,440.00
2023-05-10T18:22:21.309Z,438.00
2023-05-10T18:23:21.518Z,440.00
2023-05-10T18:24:30.442Z,440.00
2023-05-10T18:25:22.272Z,441.00
2023-05-10T18:26:21.251Z,442.00
2023-05-10T18:27:21.292Z,442.00
2023-05-10T18:28:21.282Z,442.00
2023-05-10T18:29:21.290Z,441.00
2023-05-10T18:30:21.231Z,443.00
2023-05-10T18:31:21.261Z,442.00
2023-05-10T18:32:21.218Z,439.00
2023-05-10T18:33:21.214Z,439.00
2023-05-10T18:34:21.215Z,441.00
2023-05-10T18:35:21.486Z,442.00
2023-05-10T18:36:21.173Z,442.00
2023-05-10T18:37:21.186Z,440.00
2023-05-10T18:38:21.188Z,437.00
2023-05-10T18:39:21.175Z,437.00
2023-05-10T18:40:21.194Z,438.00
2023-05-10T18:41:21.137Z,439.00
2023-05-10T18:42:21.158Z,440.00
2023-05-10T18:43:21.137Z,441.00
2023-05-10T18:44:21.148Z,441.00
2023-05-10T18:45:21.112Z,440.00
2023-05-10T18:46:21.174Z,442.00
2023-05-10T18:47:21.222Z,443.00
2023-05-10T18:48:21.124Z,445.00
2023-05-10T18:49:21.091Z,445.00
2023-05-10T18:50:21.108Z,447.00
2023-05-10T18:51:21.165Z,446.00
2023-05-10T18:52:21.195Z,445.00
2023-05-10T18:53:21.176Z,443.00
2023-05-10T18:54:21.200Z,443.00
2023-05-10T18:55:21.214Z,446.00
2023-05-10T18:56:21.220Z,444.00
2023-05-10T18:57:21.250Z,445.00
2023-05-10T18:58:21.256Z,445.00
2023-05-10T18:59:21.303Z,445.00
2023-05-10T19:00:21.325Z,444.00
2023-05-10T19:01:21.406Z,442.00
2023-05-10T19:02:21.338Z,439.00
2023-05-10T19:03:21.399Z,439.00
2023-05-10T19:04:21.389Z,437.00
2023-05-10T19:05:21.417Z,436.00
2023-05-10T19:06:21.455Z,437.00
2023-05-10T19:07:21.434Z,436.00
2023-05-10T19:08:21.462Z,436.00
2023-05-10T19:09:21.482Z,436.00
2023-05-10T19:10:21.499Z,437.00
2023-05-10T19:11:21.520Z,440.00
2023-05-10T19:12:21.563Z,441.00
2023-05-10T19:13:21.581Z,443.00
2023-05-10T19:14:21.662Z,443.00
2023-05-10T19:15:22.156Z,446.00
2023-05-10T19:16:21.658Z,447.00
2023-05-10T19:17:22.626Z,446.00
2023-05-10T19:18:21.773Z,447.00
2023-05-10T19:19:24.701Z,446.00
2023-05-10T19:20:21.744Z,445.00
2023-05-10T19:21:24.762Z,446.00
2023-05-10T19:22:35.350Z,443.00